KCSV

Crossville Memorial-Whitson Field Airport

Crossville, Tennessee, USA
METAR KCSV 220953Z AUTO 15003KT 10SM BKN060 OVC080 20/16 A3013 RMK AO2 SLP181 T02000161
Observed Flight Rules
May-22 @ 09:53 UTC (12 minutes ago) Visual Flight Rules
Wind Visibility Clouds
150° at 3 knots 10 miles
  • Broken at 6,000' AGL
  • Overcast at 8,000' AGL
Temperatures Readings
Current 20°C / 68°F
Dewpoint 16°C / 61°F
Humidity 78%
Altimeter 30.13" Hg
Pressure 1018.1 hPa
Elevation 570
METAR KCSV 220953Z AUTO 15003KT 10SM BKN060 OVC080 20/16 A3013 RMK AO2 SLP181 T02000161
Observed Flight Rules
May-22 @ 09:53 UTC
(12 minutes ago)
VFR
Wind Visibility
150° at 3 knots 10 miles
Clouds
  • Broken at 6,000' AGL
  • Overcast at 8,000' AGL
Temperature Dewpoint
20°C / 68°F 16°C / 61°F
Humidity Altimeter Pressure
78% 30.13" Hg 1018.1 hPa